sensor_id;sensor_type;location;lat;lon;timestamp;P1;durP1;ratioP1;P2;durP2;ratioP2
53261;SDS011;39658;51.090;-1.786;2023-05-07T00:01:58;48.25;;;10.60;;
53261;SDS011;39658;51.090;-1.786;2023-05-07T00:04:25;41.45;;;10.85;;
53261;SDS011;39658;51.090;-1.786;2023-05-07T00:06:53;43.70;;;10.38;;
53261;SDS011;39658;51.090;-1.786;2023-05-07T00:09:20;43.38;;;10.80;;
53261;SDS011;39658;51.090;-1.786;2023-05-07T00:11:48;37.53;;;11.35;;
53261;SDS011;39658;51.090;-1.786;2023-05-07T00:14:15;44.22;;;12.25;;
53261;SDS011;39658;51.090;-1.786;2023-05-07T00:16:41;36.65;;;9.82;;
53261;SDS011;39658;51.090;-1.786;2023-05-07T00:19:08;35.08;;;11.02;;
53261;SDS011;39658;51.090;-1.786;2023-05-07T00:21:35;46.30;;;11.65;;
53261;SDS011;39658;51.090;-1.786;2023-05-07T00:24:02;40.67;;;10.45;;
53261;SDS011;39658;51.090;-1.786;2023-05-07T00:26:29;35.70;;;9.07;;
53261;SDS011;39658;51.090;-1.786;2023-05-07T00:28:57;36.83;;;9.50;;
53261;SDS011;39658;51.090;-1.786;2023-05-07T00:31:24;33.13;;;8.95;;
53261;SDS011;39658;51.090;-1.786;2023-05-07T00:33:50;44.40;;;10.35;;
53261;SDS011;39658;51.090;-1.786;2023-05-07T00:36:17;62.63;;;11.07;;
53261;SDS011;39658;51.090;-1.786;2023-05-07T00:38:44;92.68;;;11.13;;
53261;SDS011;39658;51.090;-1.786;2023-05-07T00:41:11;55.10;;;8.95;;
53261;SDS011;39658;51.090;-1.786;2023-05-07T00:43:37;52.78;;;8.23;;
53261;SDS011;39658;51.090;-1.786;2023-05-07T00:46:05;39.70;;;7.85;;
53261;SDS011;39658;51.090;-1.786;2023-05-07T00:48:32;61.50;;;9.00;;
53261;SDS011;39658;51.090;-1.786;2023-05-07T00:50:59;73.10;;;10.65;;
53261;SDS011;39658;51.090;-1.786;2023-05-07T00:53:26;128.00;;;11.55;;
53261;SDS011;39658;51.090;-1.786;2023-05-07T00:55:53;114.35;;;9.65;;
53261;SDS011;39658;51.090;-1.786;2023-05-07T00:58:20;134.70;;;10.65;;
53261;SDS011;39658;51.090;-1.786;2023-05-07T01:00:47;111.68;;;11.93;;
53261;SDS011;39658;51.090;-1.786;2023-05-07T01:03:16;149.93;;;11.40;;
53261;SDS011;39658;51.090;-1.786;2023-05-07T01:05:43;97.53;;;9.65;;
53261;SDS011;39658;51.090;-1.786;2023-05-07T01:08:12;98.68;;;11.18;;
53261;SDS011;39658;51.090;-1.786;2023-05-07T01:10:40;68.82;;;8.52;;
53261;SDS011;39658;51.090;-1.786;2023-05-07T01:13:08;53.65;;;8.88;;
53261;SDS011;39658;51.090;-1.786;2023-05-07T01:15:36;115.38;;;11.73;;
53261;SDS011;39658;51.090;-1.786;2023-05-07T01:18:03;91.30;;;11.30;;
53261;SDS011;39658;51.090;-1.786;2023-05-07T01:20:33;115.60;;;11.60;;
53261;SDS011;39658;51.090;-1.786;2023-05-07T01:23:01;171.70;;;14.88;;
53261;SDS011;39658;51.090;-1.786;2023-05-07T01:25:29;125.57;;;11.40;;
53261;SDS011;39658;51.090;-1.786;2023-05-07T01:27:56;108.78;;;10.88;;
53261;SDS011;39658;51.090;-1.786;2023-05-07T01:30:24;111.30;;;11.80;;
53261;SDS011;39658;51.090;-1.786;2023-05-07T01:32:52;229.52;;;19.45;;
53261;SDS011;39658;51.090;-1.786;2023-05-07T01:35:24;244.13;;;14.65;;
53261;SDS011;39658;51.090;-1.786;2023-05-07T01:37:54;198.93;;;16.17;;
53261;SDS011;39658;51.090;-1.786;2023-05-07T01:40:23;172.88;;;15.25;;
53261;SDS011;39658;51.090;-1.786;2023-05-07T01:42:51;97.00;;;10.77;;
53261;SDS011;39658;51.090;-1.786;2023-05-07T01:45:19;173.80;;;15.45;;
53261;SDS011;39658;51.090;-1.786;2023-05-07T01:47:46;105.28;;;9.02;;
53261;SDS011;39658;51.090;-1.786;2023-05-07T01:50:13;149.20;;;10.95;;
53261;SDS011;39658;51.090;-1.786;2023-05-07T01:52:43;133.50;;;10.75;;
53261;SDS011;39658;51.090;-1.786;2023-05-07T01:55:10;100.63;;;10.98;;
53261;SDS011;39658;51.090;-1.786;2023-05-07T01:57:39;131.82;;;10.13;;
53261;SDS011;39658;51.090;-1.786;2023-05-07T02:00:06;154.88;;;11.80;;
53261;SDS011;39658;51.090;-1.786;2023-05-07T02:02:34;131.30;;;11.82;;
53261;SDS011;39658;51.090;-1.786;2023-05-07T02:05:01;106.03;;;12.82;;
53261;SDS011;39658;51.090;-1.786;2023-05-07T02:07:28;120.80;;;11.82;;
53261;SDS011;39658;51.090;-1.786;2023-05-07T02:09:54;117.13;;;11.95;;
53261;SDS011;39658;51.090;-1.786;2023-05-07T02:12:21;81.07;;;9.77;;
53261;SDS011;39658;51.090;-1.786;2023-05-07T02:14:49;98.47;;;10.55;;
53261;SDS011;39658;51.090;-1.786;2023-05-07T02:17:16;107.45;;;9.45;;
53261;SDS011;39658;51.090;-1.786;2023-05-07T02:19:43;87.88;;;11.52;;
53261;SDS011;39658;51.090;-1.786;2023-05-07T02:22:10;83.30;;;10.75;;
53261;SDS011;39658;51.090;-1.786;2023-05-07T02:24:36;155.13;;;15.25;;
53261;SDS011;39658;51.090;-1.786;2023-05-07T02:27:03;150.43;;;13.23;;
53261;SDS011;39658;51.090;-1.786;2023-05-07T02:29:30;116.55;;;11.80;;
53261;SDS011;39658;51.090;-1.786;2023-05-07T02:31:58;93.75;;;10.93;;
53261;SDS011;39658;51.090;-1.786;2023-05-07T02:34:25;123.95;;;11.27;;
53261;SDS011;39658;51.090;-1.786;2023-05-07T02:36:51;92.57;;;10.38;;
53261;SDS011;39658;51.090;-1.786;2023-05-07T02:39:18;104.95;;;13.23;;
53261;SDS011;39658;51.090;-1.786;2023-05-07T02:41:45;66.85;;;13.05;;
53261;SDS011;39658;51.090;-1.786;2023-05-07T02:44:12;86.28;;;16.80;;
53261;SDS011;39658;51.090;-1.786;2023-05-07T02:46:39;67.45;;;17.45;;
53261;SDS011;39658;51.090;-1.786;2023-05-07T02:49:07;63.50;;;15.50;;
53261;SDS011;39658;51.090;-1.786;2023-05-07T02:51:33;46.70;;;10.35;;
53261;SDS011;39658;51.090;-1.786;2023-05-07T02:54:00;36.88;;;9.60;;
53261;SDS011;39658;51.090;-1.786;2023-05-07T02:56:27;39.65;;;10.50;;
53261;SDS011;39658;51.090;-1.786;2023-05-07T02:58:54;44.42;;;8.93;;
53261;SDS011;39658;51.090;-1.786;2023-05-07T03:01:20;27.25;;;7.43;;
53261;SDS011;39658;51.090;-1.786;2023-05-07T03:03:47;37.65;;;9.65;;
53261;SDS011;39658;51.090;-1.786;2023-05-07T03:06:15;32.22;;;9.13;;
53261;SDS011;39658;51.090;-1.786;2023-05-07T03:08:42;28.17;;;9.93;;
53261;SDS011;39658;51.090;-1.786;2023-05-07T03:11:09;32.47;;;9.88;;
53261;SDS011;39658;51.090;-1.786;2023-05-07T03:13:36;33.60;;;11.05;;
53261;SDS011;39658;51.090;-1.786;2023-05-07T03:16:03;47.17;;;13.32;;
53261;SDS011;39658;51.090;-1.786;2023-05-07T03:18:30;45.08;;;12.13;;
53261;SDS011;39658;51.090;-1.786;2023-05-07T03:20:57;49.90;;;12.93;;
53261;SDS011;39658;51.090;-1.786;2023-05-07T03:23:25;47.67;;;12.30;;
53261;SDS011;39658;51.090;-1.786;2023-05-07T03:25:51;46.22;;;12.88;;
53261;SDS011;39658;51.090;-1.786;2023-05-07T03:28:18;45.15;;;12.60;;
53261;SDS011;39658;51.090;-1.786;2023-05-07T03:30:45;58.38;;;14.95;;
53261;SDS011;39658;51.090;-1.786;2023-05-07T03:33:12;69.03;;;16.95;;
53261;SDS011;39658;51.090;-1.786;2023-05-07T03:35:38;52.25;;;13.88;;
53261;SDS011;39658;51.090;-1.786;2023-05-07T03:38:05;64.93;;;15.85;;
53261;SDS011;39658;51.090;-1.786;2023-05-07T03:40:33;62.90;;;14.77;;
53261;SDS011;39658;51.090;-1.786;2023-05-07T03:43:00;60.15;;;17.00;;
53261;SDS011;39658;51.090;-1.786;2023-05-07T03:45:27;54.58;;;14.48;;
53261;SDS011;39658;51.090;-1.786;2023-05-07T03:47:53;54.83;;;14.88;;
53261;SDS011;39658;51.090;-1.786;2023-05-07T03:50:20;61.88;;;16.42;;
53261;SDS011;39658;51.090;-1.786;2023-05-07T03:52:47;58.08;;;15.27;;
53261;SDS011;39658;51.090;-1.786;2023-05-07T03:55:14;53.67;;;13.75;;
53261;SDS011;39658;51.090;-1.786;2023-05-07T03:57:42;53.53;;;14.32;;
53261;SDS011;39658;51.090;-1.786;2023-05-07T04:00:09;57.50;;;15.88;;
53261;SDS011;39658;51.090;-1.786;2023-05-07T04:02:36;46.97;;;15.57;;
53261;SDS011;39658;51.090;-1.786;2023-05-07T04:05:03;50.00;;;13.55;;
53261;SDS011;39658;51.090;-1.786;2023-05-07T04:07:30;50.55;;;13.52;;
53261;SDS011;39658;51.090;-1.786;2023-05-07T04:09:57;54.22;;;13.65;;
53261;SDS011;39658;51.090;-1.786;2023-05-07T04:12:24;47.47;;;13.95;;
53261;SDS011;39658;51.090;-1.786;2023-05-07T04:14:52;46.95;;;14.20;;
53261;SDS011;39658;51.090;-1.786;2023-05-07T04:17:19;48.90;;;14.00;;
53261;SDS011;39658;51.090;-1.786;2023-05-07T04:19:45;52.45;;;13.48;;
53261;SDS011;39658;51.090;-1.786;2023-05-07T04:22:12;48.75;;;14.23;;
53261;SDS011;39658;51.090;-1.786;2023-05-07T04:24:39;43.90;;;11.80;;
53261;SDS011;39658;51.090;-1.786;2023-05-07T04:27:05;44.22;;;12.80;;
53261;SDS011;39658;51.090;-1.786;2023-05-07T04:29:32;46.35;;;13.35;;
53261;SDS011;39658;51.090;-1.786;2023-05-07T04:32:00;47.03;;;14.02;;
53261;SDS011;39658;51.090;-1.786;2023-05-07T04:34:27;50.97;;;14.95;;
53261;SDS011;39658;51.090;-1.786;2023-05-07T04:36:57;60.50;;;16.02;;
53261;SDS011;39658;51.090;-1.786;2023-05-07T04:39:24;55.97;;;15.70;;
53261;SDS011;39658;51.090;-1.786;2023-05-07T04:41:51;64.00;;;17.90;;
53261;SDS011;39658;51.090;-1.786;2023-05-07T04:44:18;59.50;;;16.10;;
53261;SDS011;39658;51.090;-1.786;2023-05-07T04:46:44;66.35;;;16.55;;
53261;SDS011;39658;51.090;-1.786;2023-05-07T04:49:13;65.28;;;17.75;;
53261;SDS011;39658;51.090;-1.786;2023-05-07T04:51:40;79.25;;;21.13;;
53261;SDS011;39658;51.090;-1.786;2023-05-07T04:54:07;88.43;;;23.50;;
53261;SDS011;39658;51.090;-1.786;2023-05-07T04:56:35;80.60;;;21.75;;
53261;SDS011;39658;51.090;-1.786;2023-05-07T04:59:01;83.82;;;20.83;;
53261;SDS011;39658;51.090;-1.786;2023-05-07T05:01:28;77.93;;;19.08;;
53261;SDS011;39658;51.090;-1.786;2023-05-07T05:03:55;90.55;;;21.77;;
53261;SDS011;39658;51.090;-1.786;2023-05-07T05:06:23;100.95;;;22.88;;
53261;SDS011;39658;51.090;-1.786;2023-05-07T05:08:49;103.22;;;22.75;;
53261;SDS011;39658;51.090;-1.786;2023-05-07T05:11:16;93.30;;;21.30;;
53261;SDS011;39658;51.090;-1.786;2023-05-07T05:13:43;90.45;;;21.73;;
53261;SDS011;39658;51.090;-1.786;2023-05-07T05:16:10;85.43;;;22.15;;
53261;SDS011;39658;51.090;-1.786;2023-05-07T05:18:36;88.50;;;21.27;;
53261;SDS011;39658;51.090;-1.786;2023-05-07T05:21:03;95.18;;;20.65;;
53261;SDS011;39658;51.090;-1.786;2023-05-07T05:23:31;81.10;;;21.58;;
53261;SDS011;39658;51.090;-1.786;2023-05-07T05:25:58;90.95;;;21.40;;
53261;SDS011;39658;51.090;-1.786;2023-05-07T05:28:25;101.68;;;22.88;;
53261;SDS011;39658;51.090;-1.786;2023-05-07T05:30:52;99.53;;;23.13;;
53261;SDS011;39658;51.090;-1.786;2023-05-07T05:33:19;110.10;;;24.42;;
53261;SDS011;39658;51.090;-1.786;2023-05-07T05:35:46;110.85;;;24.10;;
53261;SDS011;39658;51.090;-1.786;2023-05-07T05:38:12;100.95;;;24.02;;
53261;SDS011;39658;51.090;-1.786;2023-05-07T05:40:41;105.45;;;23.00;;
53261;SDS011;39658;51.090;-1.786;2023-05-07T05:43:07;94.63;;;22.80;;
53261;SDS011;39658;51.090;-1.786;2023-05-07T05:45:34;106.00;;;25.23;;
53261;SDS011;39658;51.090;-1.786;2023-05-07T05:48:01;108.53;;;21.90;;
53261;SDS011;39658;51.090;-1.786;2023-05-07T05:50:28;82.22;;;21.00;;
53261;SDS011;39658;51.090;-1.786;2023-05-07T05:52:54;81.65;;;21.75;;
53261;SDS011;39658;51.090;-1.786;2023-05-07T05:55:22;96.32;;;21.38;;
53261;SDS011;39658;51.090;-1.786;2023-05-07T05:57:51;81.80;;;20.95;;
53261;SDS011;39658;51.090;-1.786;2023-05-07T06:00:17;81.15;;;22.25;;
53261;SDS011;39658;51.090;-1.786;2023-05-07T06:02:47;95.15;;;21.50;;
53261;SDS011;39658;51.090;-1.786;2023-05-07T06:05:14;68.45;;;20.63;;
53261;SDS011;39658;51.090;-1.786;2023-05-07T06:07:41;71.75;;;17.67;;
53261;SDS011;39658;51.090;-1.786;2023-05-07T06:10:07;72.35;;;19.85;;
53261;SDS011;39658;51.090;-1.786;2023-05-07T06:12:34;65.45;;;17.33;;
53261;SDS011;39658;51.090;-1.786;2023-05-07T06:15:03;65.45;;;19.38;;
53261;SDS011;39658;51.090;-1.786;2023-05-07T06:17:30;63.60;;;16.65;;
53261;SDS011;39658;51.090;-1.786;2023-05-07T06:19:57;71.10;;;18.52;;
53261;SDS011;39658;51.090;-1.786;2023-05-07T06:22:23;62.78;;;18.65;;
53261;SDS011;39658;51.090;-1.786;2023-05-07T06:24:50;65.70;;;18.30;;
53261;SDS011;39658;51.090;-1.786;2023-05-07T06:27:17;66.30;;;19.67;;
53261;SDS011;39658;51.090;-1.786;2023-05-07T06:29:43;61.85;;;18.42;;
53261;SDS011;39658;51.090;-1.786;2023-05-07T06:32:12;60.70;;;16.65;;
53261;SDS011;39658;51.090;-1.786;2023-05-07T06:34:40;62.72;;;18.33;;
53261;SDS011;39658;51.090;-1.786;2023-05-07T06:37:07;56.30;;;17.25;;
53261;SDS011;39658;51.090;-1.786;2023-05-07T06:39:34;54.65;;;15.63;;
53261;SDS011;39658;51.090;-1.786;2023-05-07T06:42:01;53.63;;;16.63;;
53261;SDS011;39658;51.090;-1.786;2023-05-07T06:44:29;59.00;;;17.15;;
53261;SDS011;39658;51.090;-1.786;2023-05-07T06:46:56;57.58;;;16.27;;
53261;SDS011;39658;51.090;-1.786;2023-05-07T06:49:24;54.78;;;17.83;;
53261;SDS011;39658;51.090;-1.786;2023-05-07T06:51:51;57.80;;;17.45;;
53261;SDS011;39658;51.090;-1.786;2023-05-07T06:54:18;56.47;;;17.85;;
53261;SDS011;39658;51.090;-1.786;2023-05-07T06:56:45;56.90;;;17.25;;
53261;SDS011;39658;51.090;-1.786;2023-05-07T06:59:12;67.22;;;20.25;;
53261;SDS011;39658;51.090;-1.786;2023-05-07T07:01:39;58.40;;;20.30;;
53261;SDS011;39658;51.090;-1.786;2023-05-07T07:04:05;65.47;;;19.73;;
53261;SDS011;39658;51.090;-1.786;2023-05-07T07:06:34;72.28;;;21.00;;
53261;SDS011;39658;51.090;-1.786;2023-05-07T07:09:00;67.43;;;21.92;;
53261;SDS011;39658;51.090;-1.786;2023-05-07T07:11:27;73.05;;;22.23;;
53261;SDS011;39658;51.090;-1.786;2023-05-07T07:13:54;69.35;;;20.05;;
53261;SDS011;39658;51.090;-1.786;2023-05-07T07:16:21;69.18;;;20.15;;
53261;SDS011;39658;51.090;-1.786;2023-05-07T07:18:48;76.00;;;21.15;;
53261;SDS011;39658;51.090;-1.786;2023-05-07T07:21:15;79.43;;;22.85;;
53261;SDS011;39658;51.090;-1.786;2023-05-07T07:23:43;72.60;;;20.95;;
53261;SDS011;39658;51.090;-1.786;2023-05-07T07:26:10;73.25;;;20.58;;
53261;SDS011;39658;51.090;-1.786;2023-05-07T07:28:41;61.88;;;20.17;;
53261;SDS011;39658;51.090;-1.786;2023-05-07T07:31:08;60.85;;;18.83;;
53261;SDS011;39658;51.090;-1.786;2023-05-07T07:33:35;66.60;;;19.90;;
53261;SDS011;39658;51.090;-1.786;2023-05-07T07:36:02;54.08;;;19.00;;
53261;SDS011;39658;51.090;-1.786;2023-05-07T07:38:30;57.70;;;18.52;;
53261;SDS011;39658;51.090;-1.786;2023-05-07T07:40:58;58.38;;;15.57;;
53261;SDS011;39658;51.090;-1.786;2023-05-07T07:43:25;46.35;;;14.98;;
53261;SDS011;39658;51.090;-1.786;2023-05-07T07:45:51;47.65;;;14.50;;
53261;SDS011;39658;51.090;-1.786;2023-05-07T07:48:18;48.88;;;17.08;;
53261;SDS011;39658;51.090;-1.786;2023-05-07T07:50:45;51.05;;;16.30;;
53261;SDS011;39658;51.090;-1.786;2023-05-07T07:53:15;47.47;;;16.02;;
53261;SDS011;39658;51.090;-1.786;2023-05-07T07:55:41;46.38;;;15.63;;
53261;SDS011;39658;51.090;-1.786;2023-05-07T07:58:10;44.00;;;14.02;;
53261;SDS011;39658;51.090;-1.786;2023-05-07T08:00:36;44.33;;;15.43;;
53261;SDS011;39658;51.090;-1.786;2023-05-07T08:03:03;42.75;;;14.85;;
53261;SDS011;39658;51.090;-1.786;2023-05-07T08:05:31;42.22;;;14.25;;
53261;SDS011;39658;51.090;-1.786;2023-05-07T08:07:58;42.92;;;14.23;;
53261;SDS011;39658;51.090;-1.786;2023-05-07T08:10:25;39.60;;;13.35;;
53261;SDS011;39658;51.090;-1.786;2023-05-07T08:12:52;36.42;;;13.98;;
53261;SDS011;39658;51.090;-1.786;2023-05-07T08:15:20;37.50;;;13.68;;
53261;SDS011;39658;51.090;-1.786;2023-05-07T08:17:47;32.15;;;12.85;;
53261;SDS011;39658;51.090;-1.786;2023-05-07T08:20:13;31.85;;;11.80;;
53261;SDS011;39658;51.090;-1.786;2023-05-07T08:22:40;38.22;;;13.15;;
53261;SDS011;39658;51.090;-1.786;2023-05-07T08:25:07;31.08;;;11.65;;
53261;SDS011;39658;51.090;-1.786;2023-05-07T08:27:34;38.38;;;12.15;;
53261;SDS011;39658;51.090;-1.786;2023-05-07T08:30:01;31.27;;;11.50;;
53261;SDS011;39658;51.090;-1.786;2023-05-07T08:32:30;35.17;;;13.13;;
53261;SDS011;39658;51.090;-1.786;2023-05-07T08:34:57;37.03;;;12.45;;
53261;SDS011;39658;51.090;-1.786;2023-05-07T08:37:23;26.63;;;11.63;;
53261;SDS011;39658;51.090;-1.786;2023-05-07T08:39:50;32.15;;;11.82;;
53261;SDS011;39658;51.090;-1.786;2023-05-07T08:42:17;32.20;;;12.75;;
53261;SDS011;39658;51.090;-1.786;2023-05-07T08:44:45;34.90;;;12.63;;
53261;SDS011;39658;51.090;-1.786;2023-05-07T08:47:13;31.90;;;12.68;;
53261;SDS011;39658;51.090;-1.786;2023-05-07T08:49:41;31.67;;;11.57;;
53261;SDS011;39658;51.090;-1.786;2023-05-07T08:52:08;37.90;;;11.23;;
53261;SDS011;39658;51.090;-1.786;2023-05-07T08:54:36;33.28;;;13.18;;
53261;SDS011;39658;51.090;-1.786;2023-05-07T08:57:03;30.83;;;11.93;;
53261;SDS011;39658;51.090;-1.786;2023-05-07T08:59:30;28.63;;;10.68;;
53261;SDS011;39658;51.090;-1.786;2023-05-07T09:01:57;22.65;;;8.38;;
53261;SDS011;39658;51.090;-1.786;2023-05-07T09:04:23;20.75;;;8.75;;
53261;SDS011;39658;51.090;-1.786;2023-05-07T09:06:52;23.40;;;9.05;;
53261;SDS011;39658;51.090;-1.786;2023-05-07T09:09:18;19.83;;;8.65;;
53261;SDS011;39658;51.090;-1.786;2023-05-07T09:11:47;19.52;;;7.18;;
53261;SDS011;39658;51.090;-1.786;2023-05-07T09:14:14;24.15;;;8.02;;
53261;SDS011;39658;51.090;-1.786;2023-05-07T09:16:41;18.58;;;7.93;;
53261;SDS011;39658;51.090;-1.786;2023-05-07T09:19:08;24.67;;;8.23;;
53261;SDS011;39658;51.090;-1.786;2023-05-07T09:21:34;18.55;;;7.72;;
53261;SDS011;39658;51.090;-1.786;2023-05-07T09:24:03;19.98;;;7.43;;
53261;SDS011;39658;51.090;-1.786;2023-05-07T09:26:30;19.67;;;8.20;;
53261;SDS011;39658;51.090;-1.786;2023-05-07T09:28:58;19.58;;;7.35;;
53261;SDS011;39658;51.090;-1.786;2023-05-07T09:31:24;21.42;;;7.60;;
53261;SDS011;39658;51.090;-1.786;2023-05-07T09:33:52;20.05;;;7.82;;
53261;SDS011;39658;51.090;-1.786;2023-05-07T09:36:20;19.60;;;6.63;;
53261;SDS011;39658;51.090;-1.786;2023-05-07T09:38:47;16.80;;;7.22;;
53261;SDS011;39658;51.090;-1.786;2023-05-07T09:41:16;21.30;;;6.85;;
53261;SDS011;39658;51.090;-1.786;2023-05-07T09:43:42;20.17;;;7.60;;
53261;SDS011;39658;51.090;-1.786;2023-05-07T09:46:11;22.33;;;7.18;;
53261;SDS011;39658;51.090;-1.786;2023-05-07T09:48:40;21.88;;;6.50;;
53261;SDS011;39658;51.090;-1.786;2023-05-07T09:51:11;22.77;;;7.18;;
53261;SDS011;39658;51.090;-1.786;2023-05-07T09:53:44;20.55;;;8.73;;
53261;SDS011;39658;51.090;-1.786;2023-05-07T09:56:12;20.52;;;6.65;;
53261;SDS011;39658;51.090;-1.786;2023-05-07T09:58:42;20.52;;;7.03;;
53261;SDS011;39658;51.090;-1.786;2023-05-07T10:03:39;16.48;;;6.72;;
53261;SDS011;39658;51.090;-1.786;2023-05-07T10:06:07;20.80;;;6.68;;
53261;SDS011;39658;51.090;-1.786;2023-05-07T10:08:35;14.75;;;5.63;;
53261;SDS011;39658;51.090;-1.786;2023-05-07T10:11:03;16.38;;;6.47;;
53261;SDS011;39658;51.090;-1.786;2023-05-07T10:13:31;20.75;;;6.32;;
53261;SDS011;39658;51.090;-1.786;2023-05-07T10:16:02;18.00;;;6.05;;
53261;SDS011;39658;51.090;-1.786;2023-05-07T10:18:30;19.70;;;5.85;;
53261;SDS011;39658;51.090;-1.786;2023-05-07T10:20:59;17.40;;;5.80;;
53261;SDS011;39658;51.090;-1.786;2023-05-07T10:23:30;15.70;;;5.40;;
53261;SDS011;39658;51.090;-1.786;2023-05-07T10:25:58;19.38;;;5.38;;
53261;SDS011;39658;51.090;-1.786;2023-05-07T10:28:27;12.88;;;5.72;;
53261;SDS011;39658;51.090;-1.786;2023-05-07T10:30:59;14.65;;;6.10;;
53261;SDS011;39658;51.090;-1.786;2023-05-07T10:33:40;14.18;;;5.20;;
53261;SDS011;39658;51.090;-1.786;2023-05-07T10:36:11;13.55;;;5.57;;
53261;SDS011;39658;51.090;-1.786;2023-05-07T10:38:38;17.65;;;4.85;;
53261;SDS011;39658;51.090;-1.786;2023-05-07T10:41:05;15.35;;;5.18;;
53261;SDS011;39658;51.090;-1.786;2023-05-07T10:43:42;17.75;;;6.70;;
53261;SDS011;39658;51.090;-1.786;2023-05-07T10:46:14;16.77;;;4.55;;
53261;SDS011;39658;51.090;-1.786;2023-05-07T10:51:37;20.20;;;6.20;;
53261;SDS011;39658;51.090;-1.786;2023-05-07T10:54:20;19.33;;;5.72;;
53261;SDS011;39658;51.090;-1.786;2023-05-07T10:56:49;16.70;;;5.55;;
53261;SDS011;39658;51.090;-1.786;2023-05-07T10:59:32;17.30;;;6.60;;
53261;SDS011;39658;51.090;-1.786;2023-05-07T11:02:07;14.60;;;5.28;;
53261;SDS011;39658;51.090;-1.786;2023-05-07T11:04:36;12.32;;;5.05;;
53261;SDS011;39658;51.090;-1.786;2023-05-07T11:07:21;18.23;;;5.43;;
53261;SDS011;39658;51.090;-1.786;2023-05-07T11:09:54;15.85;;;6.35;;
53261;SDS011;39658;51.090;-1.786;2023-05-07T11:15:36;18.20;;;7.20;;
53261;SDS011;39658;51.090;-1.786;2023-05-07T11:18:06;20.23;;;7.65;;
53261;SDS011;39658;51.090;-1.786;2023-05-07T11:20:49;21.23;;;9.77;;
53261;SDS011;39658;51.090;-1.786;2023-05-07T11:26:24;19.33;;;8.27;;
53261;SDS011;39658;51.090;-1.786;2023-05-07T11:28:51;18.95;;;7.82;;
53261;SDS011;39658;51.090;-1.786;2023-05-07T11:31:23;23.38;;;8.90;;
53261;SDS011;39658;51.090;-1.786;2023-05-07T11:33:53;20.23;;;9.68;;
53261;SDS011;39658;51.090;-1.786;2023-05-07T11:36:21;22.65;;;9.27;;
53261;SDS011;39658;51.090;-1.786;2023-05-07T11:38:49;22.88;;;7.78;;
53261;SDS011;39658;51.090;-1.786;2023-05-07T11:41:16;19.23;;;7.93;;
53261;SDS011;39658;51.090;-1.786;2023-05-07T11:43:54;21.23;;;8.20;;
53261;SDS011;39658;51.090;-1.786;2023-05-07T11:46:22;16.58;;;7.05;;
53261;SDS011;39658;51.090;-1.786;2023-05-07T11:48:49;16.30;;;8.15;;
53261;SDS011;39658;51.090;-1.786;2023-05-07T11:51:21;16.33;;;6.95;;
53261;SDS011;39658;51.090;-1.786;2023-05-07T11:53:49;13.82;;;5.78;;
53261;SDS011;39658;51.090;-1.786;2023-05-07T11:56:16;14.25;;;6.28;;
53261;SDS011;39658;51.090;-1.786;2023-05-07T11:58:45;14.93;;;6.38;;
53261;SDS011;39658;51.090;-1.786;2023-05-07T12:01:13;19.20;;;6.28;;
53261;SDS011;39658;51.090;-1.786;2023-05-07T12:03:41;16.88;;;5.45;;
53261;SDS011;39658;51.090;-1.786;2023-05-07T12:06:10;20.45;;;6.60;;
53261;SDS011;39658;51.090;-1.786;2023-05-07T12:08:40;12.93;;;4.82;;
53261;SDS011;39658;51.090;-1.786;2023-05-07T12:13:36;17.00;;;4.40;;
53261;SDS011;39658;51.090;-1.786;2023-05-07T12:16:03;12.38;;;4.45;;
53261;SDS011;39658;51.090;-1.786;2023-05-07T12:18:34;12.13;;;4.45;;
53261;SDS011;39658;51.090;-1.786;2023-05-07T12:21:01;12.60;;;3.80;;
53261;SDS011;39658;51.090;-1.786;2023-05-07T12:23:28;14.88;;;4.88;;
53261;SDS011;39658;51.090;-1.786;2023-05-07T12:25:57;9.07;;;3.17;;
53261;SDS011;39658;51.090;-1.786;2023-05-07T12:28:26;11.57;;;3.83;;
53261;SDS011;39658;51.090;-1.786;2023-05-07T12:30:52;14.00;;;4.20;;
53261;SDS011;39658;51.090;-1.786;2023-05-07T12:33:23;10.63;;;2.95;;
53261;SDS011;39658;51.090;-1.786;2023-05-07T12:35:52;10.20;;;2.53;;
53261;SDS011;39658;51.090;-1.786;2023-05-07T12:38:20;10.38;;;2.53;;
53261;SDS011;39658;51.090;-1.786;2023-05-07T12:40:47;10.02;;;2.53;;
53261;SDS011;39658;51.090;-1.786;2023-05-07T12:43:18;14.73;;;3.63;;
53261;SDS011;39658;51.090;-1.786;2023-05-07T12:45:46;9.93;;;2.95;;
53261;SDS011;39658;51.090;-1.786;2023-05-07T12:48:13;12.27;;;2.85;;
53261;SDS011;39658;51.090;-1.786;2023-05-07T12:50:40;10.52;;;3.20;;
53261;SDS011;39658;51.090;-1.786;2023-05-07T12:53:08;9.23;;;3.00;;
53261;SDS011;39658;51.090;-1.786;2023-05-07T12:55:40;13.40;;;3.15;;
53261;SDS011;39658;51.090;-1.786;2023-05-07T12:58:08;9.18;;;3.20;;
53261;SDS011;39658;51.090;-1.786;2023-05-07T13:00:43;22.38;;;7.82;;
53261;SDS011;39658;51.090;-1.786;2023-05-07T13:03:11;9.85;;;3.03;;
53261;SDS011;39658;51.090;-1.786;2023-05-07T13:05:37;17.67;;;3.45;;
53261;SDS011;39658;51.090;-1.786;2023-05-07T13:08:05;36.88;;;11.07;;
53261;SDS011;39658;51.090;-1.786;2023-05-07T13:10:31;10.98;;;3.28;;
53261;SDS011;39658;51.090;-1.786;2023-05-07T13:12:59;9.90;;;2.60;;
53261;SDS011;39658;51.090;-1.786;2023-05-07T13:15:25;9.55;;;2.22;;
53261;SDS011;39658;51.090;-1.786;2023-05-07T13:17:54;6.75;;;2.28;;
53261;SDS011;39658;51.090;-1.786;2023-05-07T13:20:21;7.82;;;2.50;;
53261;SDS011;39658;51.090;-1.786;2023-05-07T13:22:48;25.08;;;6.32;;
53261;SDS011;39658;51.090;-1.786;2023-05-07T13:25:15;16.98;;;4.72;;
53261;SDS011;39658;51.090;-1.786;2023-05-07T13:27:42;40.60;;;9.35;;
53261;SDS011;39658;51.090;-1.786;2023-05-07T13:30:09;8.77;;;3.05;;
53261;SDS011;39658;51.090;-1.786;2023-05-07T13:32:36;12.55;;;3.10;;
53261;SDS011;39658;51.090;-1.786;2023-05-07T13:35:04;7.80;;;3.00;;
53261;SDS011;39658;51.090;-1.786;2023-05-07T13:37:31;8.68;;;2.40;;
53261;SDS011;39658;51.090;-1.786;2023-05-07T13:39:58;14.70;;;3.33;;
53261;SDS011;39658;51.090;-1.786;2023-05-07T13:42:25;8.80;;;3.08;;
53261;SDS011;39658;51.090;-1.786;2023-05-07T13:44:52;44.38;;;4.65;;
53261;SDS011;39658;51.090;-1.786;2023-05-07T13:47:19;15.02;;;3.10;;
53261;SDS011;39658;51.090;-1.786;2023-05-07T13:49:45;9.60;;;2.85;;
53261;SDS011;39658;51.090;-1.786;2023-05-07T13:52:15;14.43;;;3.30;;
53261;SDS011;39658;51.090;-1.786;2023-05-07T13:54:42;10.35;;;3.22;;
53261;SDS011;39658;51.090;-1.786;2023-05-07T13:57:09;11.63;;;3.05;;
53261;SDS011;39658;51.090;-1.786;2023-05-07T13:59:36;9.75;;;3.40;;
53261;SDS011;39658;51.090;-1.786;2023-05-07T14:02:02;8.40;;;3.13;;
53261;SDS011;39658;51.090;-1.786;2023-05-07T14:04:30;7.75;;;3.28;;
53261;SDS011;39658;51.090;-1.786;2023-05-07T14:06:57;10.77;;;4.07;;
53261;SDS011;39658;51.090;-1.786;2023-05-07T14:09:25;11.43;;;3.25;;
53261;SDS011;39658;51.090;-1.786;2023-05-07T14:11:52;12.02;;;3.85;;
53261;SDS011;39658;51.090;-1.786;2023-05-07T14:14:19;19.65;;;5.07;;
53261;SDS011;39658;51.090;-1.786;2023-05-07T14:16:45;7.63;;;3.40;;
53261;SDS011;39658;51.090;-1.786;2023-05-07T14:19:12;11.63;;;3.75;;
53261;SDS011;39658;51.090;-1.786;2023-05-07T14:21:39;10.25;;;3.38;;
53261;SDS011;39658;51.090;-1.786;2023-05-07T14:24:06;12.85;;;3.15;;
53261;SDS011;39658;51.090;-1.786;2023-05-07T14:26:34;11.43;;;2.95;;
53261;SDS011;39658;51.090;-1.786;2023-05-07T14:29:01;12.43;;;2.67;;
53261;SDS011;39658;51.090;-1.786;2023-05-07T14:31:28;9.27;;;2.60;;